Parkland, Illinois
Current Conditions -  °F | °C
As of 2:54 AM on Thursday 23 Oct 2014 (Local Time) from KPIA Reporting Station
Clear Clear  
Wind Chill: 42°   Ceiling: Unl
Heat Index: 45°   Visibility: 10mi
Dew Point: 36°   Wind: 6mph
Humidity: 71%   Direction: 140°SE
Pressure: 30.21"   Gusts: NA
Location:  40.3879°N, 89.7742°W
Report Text: KPIA 230754Z 14005KT 10SM CLR 07/02 A3021 RMK AO2 SLP231 T00720022 $
Loading
Personal Weather Stations






























Interactive Weather Map
Tropical Storm Tracking
New forecast layout! Learn more

10-Day Weather Forecast

Advertisements
Track Severe Weather on mobile